CheckWX is a tool to help pilots better visualize weather data.  It is not intended as a substitute for an official pre-flight weather briefing.

00:17:38 UTC

KBHB TAF
Hancock County-Bar Harbor Airport
Bar Harbor, Maine, USA
KBHB 222335Z 2300/2324 10010KT P6SM OVC080 FM230400 10010G18KT P6SM VCSH SCT015 OVC025 FM230700 10012G22KT 3SM -RA BR OVC010 WS020/14050KT FM231200 14020G30KT 1SM +RA BR OVC005 WS020/14050KT FM231800 18012G22KT 3SM -RA BR OVC005 FM232000 29010G18KT P6SM VCSH OVC015

Oct-23@
00:00 UTC

Oct-23 @ 00:00 UTC

Oct-23@
04:00 UTC

Oct-23 @ 04:00 UTC

KBHB 222335Z 2300/2324 10010KT P6SM OVC080
Wind
  • 100° at 10 KTS
Cloud Levels
  • Overcast at 8,000' AGL

Oct-23@
04:00 UTC

Oct-23 @ 04:00 UTC

Oct-23@
07:00 UTC

Oct-23 @ 07:00 UTC

FM230400 10010G18KT P6SM VCSH SCT015 OVC025

From

From Standard forecast or significant change

Wind
  • 100° at 10 KTS
  • {Gusting to 18 KTS
Cloud Levels
  • Scattered at 1,500' AGL
  • Overcast at 2,500' AGL

Oct-23@
07:00 UTC

Oct-23 @ 07:00 UTC

Oct-23@
12:00 UTC

Oct-23 @ 12:00 UTC

FM230700 10012G22KT 3SM -RA BR OVC010 WS020/14050KT

From

From Standard forecast or significant change

Wind
  • 100° at 12 KTS
  • {Gusting to 22 KTS
Conditions
Light Rain, Mist
Cloud Levels
  • Overcast at 1,000' AGL

Oct-23@
12:00 UTC

Oct-23 @ 12:00 UTC

Oct-23@
18:00 UTC

Oct-23 @ 18:00 UTC

FM231200 14020G30KT 1SM +RA BR OVC005 WS020/14050KT

From

From Standard forecast or significant change

Wind
  • 140° at 20 KTS
  • {Gusting to 30 KTS
Conditions
Heavy Rain, Mist
Cloud Levels
  • Overcast at 500' AGL

Oct-23@
18:00 UTC

Oct-23 @ 18:00 UTC

Oct-23@
20:00 UTC

Oct-23 @ 20:00 UTC

FM231800 18012G22KT 3SM -RA BR OVC005

From

From Standard forecast or significant change

Wind
  • 180° at 12 KTS
  • {Gusting to 22 KTS
Conditions
Light Rain, Mist
Cloud Levels
  • Overcast at 500' AGL

Oct-23@
20:00 UTC

Oct-23 @ 20:00 UTC

Oct-24@
00:00 UTC

Oct-24 @ 00:00 UTC

FM232000 29010G18KT P6SM VCSH OVC015

From

From Standard forecast or significant change

Wind
  • 290° at 10 KTS
  • {Gusting to 18 KTS
Cloud Levels
  • Overcast at 1,500' AGL